Pagrindinis puslapis
METAR-TAF:

METAR-TAF

Oro uostai :

Batmanas, Turkija

platuma: 37-52N, ilguma: 041-10E, Aukštis: 540 m

Dabartinis oras

Ataskaita buvo paskelbta 23 minutes, ne 23:50 UTC
Vėjas 4 kt iš Rytų/Šiaurės Rytų
Temperatūra 14°C
Drėgmė 63%
Slėgis 1015 hPa
Matomumas 10 km arba daugiau
nėra debesų žemiau 1500 m ir nėra kamuolinių lietaus debesų

METAR: LTCJ 182350Z 06004KT CAVOK 14/07 Q1015 RMK RWY20 08004KT 030V100

Laikas: 03:13 (00:13 UTC)

Prognozė

Ataskaita buvo paskelbta 1 valandą ir 33 minutes, ne 22:40 UTC
Prognozė galioja nuo 19 metu 00 UTC su 19 metu 24 UTC
Vėjas 2 kt nuo kintamojo kryptimis
Matomumas 10 km arba daugiau
nėra debesų žemiau 1500 m ir nėra kamuolinių lietaus debesų

TAF: LTCJ 182240Z 1900/1924 VRB02KT CAVOK

Orai ataskaitas ir orų prognozės (METAR, TAF).

turimą stotys yra geltonos ir raudonos taškus žemėlapyje.

Perkelti pele per norėdami pamatyti stoties vardą.

Tada spustelėkite, norėdami matyti oro stebėjimo ir prognozės.

Norėdami pakeisti žemėlapį: spustelėkite ant žalios mygtukų su juodo kryžiaus žemyn,; žalią mygtuką su brūkšneliu, jei norite nutolinti; arba žalių rodyklių gretimoms žemėlapius.


METAR-TAF: